Time;durP1;ratioP1;P1;durP2;ratioP2;P2;SDS_P1;SDS_P2;PMS_P1;PMS_P2;Temp;Humidity;BMP_temperature;BMP_pressure;BME280_temperature;BME280_humidity;BME280_pressure;Samples;Min_cycle;Max_cycle;Signal;HPM_P1;HPM_P2
2022/08/21 00:02:22;;;;;;;7.13;2.47;;;17.30;99.90;;;;;;5071374;28;20063;-83
2022/08/21 00:04:50;;;;;;;6.10;2.72;;;17.30;99.90;;;;;;5089697;28;20036;-84
2022/08/21 00:07:17;;;;;;;5.00;2.70;;;17.20;99.90;;;;;;5068996;28;20048;-83
2022/08/21 00:09:43;;;;;;;5.45;2.90;;;17.20;99.90;;;;;;5054664;28;20050;-84
2022/08/21 00:12:09;;;;;;;6.38;2.42;;;17.20;99.90;;;;;;5087606;28;20044;-83
2022/08/21 00:14:36;;;;;;;6.07;2.45;;;17.20;99.90;;;;;;5070546;28;20128;-83
2022/08/21 00:17:03;;;;;;;5.82;2.85;;;17.10;99.90;;;;;;5074214;28;20063;-84
2022/08/21 00:19:29;;;;;;;4.80;2.70;;;17.10;99.90;;;;;;5093156;28;20485;-84
2022/08/21 00:21:55;;;;;;;4.65;2.70;;;17.10;99.90;;;;;;5059679;28;20051;-84
2022/08/21 00:24:22;;;;;;;6.63;2.70;;;17.00;99.90;;;;;;5074900;28;20072;-84
2022/08/21 00:26:49;;;;;;;7.00;3.20;;;17.00;99.90;;;;;;5075258;28;20396;-84
2022/08/21 00:29:15;;;;;;;5.82;2.90;;;16.90;99.90;;;;;;5057558;28;20082;-84
2022/08/21 00:31:42;;;;;;;5.13;2.78;;;16.90;99.90;;;;;;5090870;28;20039;-82
2022/08/21 00:34:09;;;;;;;5.35;2.60;;;16.90;99.90;;;;;;5057292;28;20044;-83
2022/08/21 00:36:36;;;;;;;7.18;3.15;;;16.90;99.90;;;;;;5075043;28;20036;-85
2022/08/21 00:39:03;;;;;;;6.93;2.63;;;16.90;99.90;;;;;;5076048;28;20051;-83
2022/08/21 00:41:29;;;;;;;6.63;2.90;;;16.90;99.90;;;;;;5090625;28;20048;-82
2022/08/21 00:43:55;;;;;;;6.95;2.72;;;16.90;99.90;;;;;;5058965;28;20066;-84
2022/08/21 00:46:21;;;;;;;4.32;2.30;;;16.90;99.90;;;;;;5077723;28;20126;-84
2022/08/21 00:48:47;;;;;;;4.45;2.30;;;16.90;99.90;;;;;;5074360;28;20036;-83
2022/08/21 00:51:32;;;;;;;5.97;2.60;;;16.90;99.90;;;;;;5075320;28;20089;-83
2022/08/21 00:54:02;;;;;;;6.10;2.00;;;16.90;99.90;;;;;;5091988;28;20043;-84
2022/08/21 00:56:28;;;;;;;4.20;1.90;;;16.90;99.90;;;;;;5092486;28;20069;-84
2022/08/21 00:58:57;;;;;;;4.63;2.15;;;17.00;99.90;;;;;;5075328;28;20047;-84
2022/08/21 01:01:23;;;;;;;4.15;1.90;;;17.00;99.90;;;;;;5073419;28;20060;-83
2022/08/21 01:03:49;;;;;;;5.20;2.17;;;17.00;99.90;;;;;;5058061;28;20048;-84
2022/08/21 01:06:15;;;;;;;5.20;2.47;;;17.00;99.90;;;;;;5058398;28;20047;-84
2022/08/21 01:08:41;;;;;;;3.90;2.15;;;17.10;99.90;;;;;;5074143;28;20043;-84
2022/08/21 01:11:07;;;;;;;5.53;2.20;;;17.10;99.90;;;;;;5074049;28;20138;-83
2022/08/21 01:13:38;;;;;;;4.18;2.10;;;17.10;99.90;;;;;;5057889;28;20045;-84
2022/08/21 01:16:08;;;;;;;9.40;2.47;;;17.10;99.90;;;;;;5090820;28;20044;-85
2022/08/21 01:18:34;;;;;;;4.95;2.50;;;17.10;99.90;;;;;;5060609;28;20040;-85
2022/08/21 01:21:12;;;;;;;4.10;2.40;;;17.10;99.90;;;;;;5090401;28;20508;-84
2022/08/21 01:23:42;;;;;;;6.10;2.70;;;17.20;99.90;;;;;;5069843;28;20442;-83
2022/08/21 01:26:10;;;;;;;5.68;2.65;;;17.10;99.90;;;;;;5090450;28;20055;-83
2022/08/21 01:28:43;;;;;;;5.22;2.30;;;17.10;99.90;;;;;;5073751;28;20105;-84
2022/08/21 01:31:11;;;;;;;4.85;2.42;;;17.00;99.90;;;;;;5074624;28;20047;-83
2022/08/21 01:33:37;;;;;;;4.90;2.42;;;17.00;99.90;;;;;;5071886;28;20048;-84
2022/08/21 01:36:03;;;;;;;5.72;2.50;;;17.00;99.90;;;;;;5040576;28;20052;-83
2022/08/21 01:38:29;;;;;;;5.68;2.45;;;17.00;99.90;;;;;;5092141;28;20601;-84
2022/08/21 01:40:55;;;;;;;6.13;2.45;;;16.90;99.90;;;;;;5073502;28;20035;-83
2022/08/21 01:43:22;;;;;;;5.30;2.63;;;16.90;99.90;;;;;;5040999;28;20060;-83
2022/08/21 01:45:48;;;;;;;6.13;2.55;;;16.90;99.90;;;;;;5071384;28;20140;-82
2022/08/21 01:48:14;;;;;;;5.90;3.40;;;16.90;99.90;;;;;;5047359;28;20123;-83
2022/08/21 01:50:39;;;;;;;6.38;3.47;;;16.90;99.90;;;;;;5076080;28;20413;-84
2022/08/21 01:53:05;;;;;;;5.20;3.22;;;16.90;99.90;;;;;;5044701;28;21012;-84
2022/08/21 01:55:31;;;;;;;7.63;3.22;;;16.90;99.90;;;;;;5072292;28;20311;-84
2022/08/21 01:57:58;;;;;;;4.30;2.97;;;16.90;99.90;;;;;;5056180;28;20592;-83
2022/08/21 02:00:25;;;;;;;6.00;2.63;;;16.90;99.90;;;;;;5072556;28;20389;-84
2022/08/21 02:02:51;;;;;;;7.47;2.97;;;16.90;99.90;;;;;;5065578;28;20044;-84
2022/08/21 02:05:18;;;;;;;5.75;3.10;;;16.90;99.90;;;;;;5079937;28;20118;-83
2022/08/21 02:07:51;;;;;;;6.07;2.78;;;16.90;99.90;;;;;;5064321;28;20497;-83
2022/08/21 02:10:25;;;;;;;6.78;2.78;;;16.90;99.90;;;;;;5097532;28;20135;-83
2022/08/21 02:12:52;;;;;;;8.15;2.90;;;17.00;99.90;;;;;;5080340;28;20046;-85
2022/08/21 02:15:18;;;;;;;3.92;2.55;;;16.90;99.90;;;;;;5097030;28;20521;-84
2022/08/21 02:17:56;;;;;;;5.13;2.55;;;16.90;99.90;;;;;;5095753;28;20048;-84
2022/08/21 02:20:22;;;;;;;7.70;2.92;;;16.90;99.90;;;;;;5064129;28;20055;-84
2022/08/21 02:22:48;;;;;;;9.98;3.03;;;16.90;99.90;;;;;;5097296;28;20047;-83
2022/08/21 02:25:13;;;;;;;6.22;2.47;;;16.90;99.90;;;;;;5064290;28;20052;-82
2022/08/21 02:27:44;;;;;;;6.13;2.45;;;16.90;99.90;;;;;;5062373;28;20573;-83
2022/08/21 02:30:16;;;;;;;6.57;2.83;;;17.00;99.90;;;;;;5081020;28;20047;-84
2022/08/21 02:32:42;;;;;;;7.82;3.00;;;16.90;99.90;;;;;;5080091;28;20043;-83
2022/08/21 02:35:09;;;;;;;8.05;2.78;;;17.00;99.90;;;;;;5064146;28;20533;-84
2022/08/21 02:37:47;;;;;;;9.15;3.10;;;17.00;99.90;;;;;;5076886;28;20067;-84
2022/08/21 02:40:13;;;;;;;5.22;3.03;;;17.00;99.90;;;;;;5080018;28;20055;-83
2022/08/21 02:42:39;;;;;;;8.43;3.25;;;16.30;99.90;;;;;;5099305;28;20051;-84
2022/08/21 02:45:07;;;;;;;7.03;2.63;;;17.00;99.90;;;;;;5080528;28;20405;-84
2022/08/21 02:47:33;;;;;;;5.53;2.70;;;17.00;99.90;;;;;;5061116;28;20376;-83
2022/08/21 02:49:58;;;;;;;7.40;2.70;;;16.90;99.90;;;;;;5097932;28;20197;-84
2022/08/21 02:52:24;;;;;;;5.57;2.72;;;16.90;99.90;;;;;;5062287;28;20075;-83
2022/08/21 02:54:50;;;;;;;4.75;2.70;;;16.90;99.90;;;;;;5097440;28;20496;-83
2022/08/21 02:57:16;;;;;;;5.90;2.80;;;16.90;99.90;;;;;;5062299;28;20052;-83
2022/08/21 02:59:41;;;;;;;7.63;2.63;;;16.90;99.90;;;;;;5095504;28;20078;-84
2022/08/21 03:02:07;;;;;;;5.35;2.45;;;16.90;99.90;;;;;;5064272;28;20097;-83
2022/08/21 03:04:33;;;;;;;6.65;2.55;;;16.80;99.90;;;;;;5079765;28;20507;-84
2022/08/21 03:06:59;;;;;;;9.35;2.53;;;16.80;99.90;;;;;;5096797;28;20052;-84
2022/08/21 03:09:25;;;;;;;5.95;2.97;;;16.80;99.90;;;;;;5078966;28;20098;-84
2022/08/21 03:11:51;;;;;;;6.78;2.20;;;16.80;99.90;;;;;;5062972;28;20098;-84
2022/08/21 03:14:18;;;;;;;9.77;2.30;;;16.90;99.90;;;;;;5063496;28;20397;-84
2022/08/21 03:16:44;;;;;;;4.47;1.60;;;16.90;99.90;;;;;;5078741;28;20442;-84
2022/08/21 03:19:10;;;;;;;8.00;1.75;;;17.00;99.90;;;;;;5062857;28;20055;-84
2022/08/21 03:21:36;;;;;;;7.65;1.98;;;17.00;99.90;;;;;;5077850;28;20220;-85
2022/08/21 03:24:02;;;;;;;5.90;1.80;;;17.00;99.90;;;;;;5080990;28;20047;-85
2022/08/21 03:26:28;;;;;;;8.45;1.88;;;17.00;99.90;;;;;;5096070;28;20492;-83
2022/08/21 03:28:54;;;;;;;6.45;1.85;;;17.10;99.90;;;;;;5062577;28;20047;-84
2022/08/21 03:31:21;;;;;;;9.77;2.03;;;17.10;99.90;;;;;;5077709;28;20047;-83
2022/08/21 03:33:47;;;;;;;7.97;2.17;;;17.20;99.90;;;;;;5098297;28;20051;-83
2022/08/21 03:36:13;;;;;;;8.07;1.88;;;17.20;99.90;;;;;;5078583;28;20047;-83
2022/08/21 03:38:40;;;;;;;5.28;1.92;;;17.20;99.90;;;;;;5063060;28;20152;-85
2022/08/21 03:41:07;;;;;;;5.30;1.58;;;17.20;99.90;;;;;;5062588;28;20040;-86
2022/08/21 03:43:33;;;;;;;6.15;1.95;;;17.30;99.90;;;;;;5064722;28;20130;-85
2022/08/21 03:46:01;;;;;;;8.45;2.00;;;17.30;99.90;;;;;;5079968;28;20126;-85
2022/08/21 03:48:26;;;;;;;10.57;2.38;;;17.30;99.90;;;;;;5063682;28;20101;-86
2022/08/21 03:50:56;;;;;;;4.68;1.83;;;17.30;99.90;;;;;;5047273;28;20055;-87
2022/08/21 03:53:22;;;;;;;7.43;2.28;;;17.30;99.90;;;;;;5084142;28;20044;-84
2022/08/21 03:55:50;;;;;;;8.85;2.45;;;17.40;99.90;;;;;;5082293;28;20055;-85
2022/08/21 03:58:18;;;;;;;9.38;2.40;;;17.40;99.90;;;;;;5101776;28;20043;-87
2022/08/21 04:00:46;;;;;;;8.43;2.95;;;17.70;99.90;;;;;;5084275;28;20517;-86
2022/08/21 04:03:13;;;;;;;8.10;2.60;;;17.40;99.90;;;;;;5083982;28;20044;-85
2022/08/21 04:05:38;;;;;;;6.72;2.10;;;17.40;99.90;;;;;;5098524;28;20070;-85
2022/08/21 04:08:06;;;;;;;7.82;2.22;;;17.30;99.90;;;;;;5100151;28;20401;-84
2022/08/21 04:10:34;;;;;;;5.35;2.00;;;17.40;99.90;;;;;;5082711;28;20043;-84
2022/08/21 04:13:00;;;;;;;8.95;3.33;;;17.40;99.90;;;;;;5100652;28;20665;-85
2022/08/21 04:15:26;;;;;;;8.45;2.47;;;17.40;99.90;;;;;;5051797;28;20044;-85
2022/08/21 04:17:53;;;;;;;8.50;2.05;;;17.40;99.90;;;;;;5082781;28;20047;-85
2022/08/21 04:20:21;;;;;;;7.35;2.13;;;17.40;99.90;;;;;;5100205;28;20043;-84
2022/08/21 04:22:48;;;;;;;8.40;2.22;;;16.40;99.90;;;;;;5051047;28;20047;-85
2022/08/21 04:25:15;;;;;;;7.50;2.33;;;17.40;99.90;;;;;;5102574;28;20132;-84
2022/08/21 04:27:41;;;;;;;7.60;2.47;;;17.40;99.90;;;;;;5098333;28;20091;-86
2022/08/21 04:30:08;;;;;;;6.22;1.98;;;17.30;99.90;;;;;;5101101;28;20047;-87
2022/08/21 04:32:37;;;;;;;6.38;2.35;;;17.50;99.90;;;;;;5085666;28;20043;-87
2022/08/21 04:35:08;;;;;;;9.63;2.42;;;17.50;99.90;;;;;;5102622;28;20123;-87
2022/08/21 04:37:34;;;;;;;6.85;2.30;;;17.50;99.90;;;;;;5081461;28;20047;-85
2022/08/21 04:40:00;;;;;;;7.70;2.00;;;17.50;99.90;;;;;;5081720;28;20075;-86
2022/08/21 04:42:26;;;;;;;5.95;2.20;;;17.50;99.90;;;;;;5082948;28;20083;-86
2022/08/21 04:44:55;;;;;;;6.70;2.30;;;17.50;99.90;;;;;;5100728;28;20117;-86
2022/08/21 04:47:21;;;;;;;9.00;2.28;;;17.50;99.90;;;;;;5082134;28;20044;-86
2022/08/21 04:49:48;;;;;;;8.75;2.35;;;17.50;99.90;;;;;;5082165;28;20062;-88
2022/08/21 04:52:17;;;;;;;5.90;1.77;;;17.50;99.90;;;;;;5083296;28;20626;-84
2022/08/21 04:54:45;;;;;;;6.45;2.25;;;17.50;99.90;;;;;;5082277;28;20086;-86
2022/08/21 04:57:12;;;;;;;11.07;2.40;;;17.50;99.90;;;;;;5099891;28;20067;-87
2022/08/21 04:59:44;;;;;;;8.20;2.08;;;17.50;99.90;;;;;;5066473;28;20052;-85
2022/08/21 05:02:10;;;;;;;8.85;2.10;;;17.60;99.90;;;;;;5083113;28;20044;-85
2022/08/21 05:04:40;;;;;;;5.82;2.10;;;17.50;99.90;;;;;;5079190;28;20047;-86
2022/08/21 05:07:11;;;;;;;6.47;2.10;;;17.70;99.90;;;;;;5099790;28;20173;-83
2022/08/21 05:09:38;;;;;;;7.07;1.90;;;17.60;99.90;;;;;;5081012;28;20075;-82
2022/08/21 05:12:04;;;;;;;8.50;2.35;;;17.60;99.90;;;;;;5082076;28;20066;-83
2022/08/21 05:14:30;;;;;;;6.97;1.85;;;17.70;99.90;;;;;;5098747;28;20051;-83
2022/08/21 05:16:56;;;;;;;7.88;2.00;;;17.70;99.90;;;;;;5098317;28;20055;-83
2022/08/21 05:19:23;;;;;;;6.20;1.88;;;17.70;99.90;;;;;;5065405;28;20052;-84
2022/08/21 05:21:48;;;;;;;7.30;1.92;;;17.80;99.90;;;;;;5039959;28;20075;-84
2022/08/21 05:24:14;;;;;;;7.78;2.10;;;17.80;99.90;;;;;;5080521;28;20504;-83
2022/08/21 05:26:40;;;;;;;8.32;2.10;;;17.80;99.90;;;;;;5098578;28;20136;-83
2022/08/21 05:29:06;;;;;;;9.18;2.28;;;17.90;99.90;;;;;;5083638;28;20094;-83
2022/08/21 05:31:32;;;;;;;7.78;2.17;;;17.90;99.90;;;;;;5078645;28;20124;-84
2022/08/21 05:33:58;;;;;;;8.00;2.33;;;18.00;99.90;;;;;;5083177;28;20052;-84
2022/08/21 05:36:24;;;;;;;7.53;2.30;;;18.10;99.90;;;;;;5080362;28;20098;-84
2022/08/21 05:38:50;;;;;;;8.23;2.03;;;18.10;99.90;;;;;;5082058;28;20051;-84
2022/08/21 05:41:16;;;;;;;6.57;1.92;;;18.20;99.90;;;;;;5063756;28;20054;-84
2022/08/21 05:43:42;;;;;;;9.63;2.20;;;18.30;99.90;;;;;;5065620;28;20051;-84
2022/08/21 05:46:08;;;;;;;8.88;2.38;;;18.40;99.90;;;;;;5064216;28;20052;-85
2022/08/21 05:48:35;;;;;;;9.45;2.38;;;18.40;99.90;;;;;;5064919;28;20078;-83
2022/08/21 05:51:10;;;;;;;8.30;3.05;;;18.50;99.90;;;;;;5082322;28;20047;-84
2022/08/21 05:53:36;;;;;;;9.77;2.40;;;18.50;99.90;;;;;;5081064;28;20040;-81
2022/08/21 05:56:04;;;;;;;8.82;2.10;;;18.60;99.90;;;;;;5101100;28;20424;-86
2022/08/21 05:58:32;;;;;;;6.80;2.22;;;18.70;99.90;;;;;;5102016;28;20477;-89
2022/08/21 06:00:59;;;;;;;13.07;2.30;;;18.70;99.90;;;;;;5084956;28;20488;-89
2022/08/21 06:03:28;;;;;;;7.55;2.22;;;18.80;99.90;;;;;;5065064;28;20048;-86
2022/08/21 06:05:55;;;;;;;7.30;2.42;;;18.80;99.90;;;;;;5101002;28;20050;-87
2022/08/21 06:08:22;;;;;;;9.63;1.90;;;18.80;99.90;;;;;;5069900;28;20118;-86
2022/08/21 06:10:49;;;;;;;8.30;2.20;;;18.90;99.90;;;;;;5082309;28;20055;-86
2022/08/21 06:13:16;;;;;;;8.55;2.20;;;18.90;99.90;;;;;;5077521;28;20089;-84
2022/08/21 06:15:42;;;;;;;10.63;1.90;;;19.00;99.90;;;;;;5075512;28;20044;-84
2022/08/21 06:18:09;;;;;;;6.18;2.03;;;19.00;99.90;;;;;;5073854;28;20051;-86
2022/08/21 06:20:34;;;;;;;6.88;2.05;;;19.10;99.90;;;;;;5070832;28;20082;-84
2022/08/21 06:23:01;;;;;;;7.25;2.40;;;19.10;99.90;;;;;;5071832;28;20076;-84
2022/08/21 06:25:27;;;;;;;8.77;2.50;;;19.20;99.90;;;;;;5088444;28;20051;-84
2022/08/21 06:27:53;;;;;;;6.78;2.78;;;19.30;99.90;;;;;;5040405;28;20052;-87
2022/08/21 06:30:19;;;;;;;8.65;2.00;;;19.20;99.90;;;;;;5077712;28;20046;-86
2022/08/21 06:32:45;;;;;;;9.50;2.60;;;19.40;99.90;;;;;;5097306;28;20051;-89
2022/08/21 06:35:11;;;;;;;9.18;2.75;;;19.50;99.90;;;;;;5084373;28;20042;-85
2022/08/21 06:37:37;;;;;;;9.82;2.38;;;19.50;99.90;;;;;;5080929;28;20446;-86
2022/08/21 06:40:06;;;;;;;10.10;2.20;;;19.60;99.90;;;;;;5062286;28;20036;-87
2022/08/21 06:42:32;;;;;;;9.02;2.20;;;19.70;99.90;;;;;;5089390;28;20044;-86
2022/08/21 06:44:58;;;;;;;6.85;2.40;;;19.70;99.90;;;;;;5092239;28;20066;-88
2022/08/21 06:47:24;;;;;;;8.50;2.17;;;19.80;99.90;;;;;;5061283;28;20048;-85
2022/08/21 06:49:51;;;;;;;7.72;2.10;;;19.80;99.90;;;;;;5083039;28;20054;-91
2022/08/21 06:52:17;;;;;;;9.38;2.20;;;20.00;99.90;;;;;;5075903;28;20055;-87
2022/08/21 06:54:50;;;;;;;6.93;2.15;;;20.00;99.90;;;;;;5076287;28;20040;-90
2022/08/21 06:57:15;;;;;;;10.85;2.72;;;19.20;99.90;;;;;;5077830;28;20054;-87
2022/08/21 06:59:41;;;;;;;7.22;2.17;;;20.20;99.90;;;;;;5073149;28;20100;-83
2022/08/21 07:02:07;;;;;;;8.43;2.28;;;20.30;99.90;;;;;;5057311;28;20083;-83
2022/08/21 07:04:33;;;;;;;10.13;2.22;;;20.30;99.90;;;;;;5090163;28;20051;-81
2022/08/21 07:06:59;;;;;;;10.20;2.38;;;20.40;99.90;;;;;;5080247;28;20047;-92
2022/08/21 07:09:24;;;;;;;8.85;2.00;;;20.50;99.90;;;;;;5085846;28;20050;-88
2022/08/21 07:11:53;;;;;;;5.90;2.05;;;20.60;99.90;;;;;;5093719;28;21100;-85
2022/08/21 07:14:19;;;;;;;10.07;2.25;;;20.70;99.90;;;;;;5107213;28;20035;-88
2022/08/21 07:16:45;;;;;;;10.45;2.22;;;20.70;99.90;;;;;;5083156;28;20044;-85
2022/08/21 07:19:10;;;;;;;7.03;2.28;;;20.80;99.90;;;;;;5078322;28;20040;-88
2022/08/21 07:21:39;;;;;;;8.73;2.45;;;20.90;99.90;;;;;;5069268;28;20048;-88
2022/08/21 07:24:05;;;;;;;9.93;2.00;;;21.10;99.90;;;;;;5083424;28;20112;-86
2022/08/21 07:26:30;;;;;;;11.63;2.88;;;21.40;99.90;;;;;;5087466;28;20521;-89
2022/08/21 07:28:56;;;;;;;8.57;2.20;;;21.20;99.90;;;;;;5059486;28;20051;-92
2022/08/21 07:31:25;;;;;;;5.65;1.92;;;21.20;99.90;;;;;;5082263;28;20067;-90
2022/08/21 07:33:51;;;;;;;10.07;2.20;;;21.40;99.90;;;;;;5062933;28;20480;-84
2022/08/21 07:36:18;;;;;;;6.32;2.10;;;21.40;99.90;;;;;;5072623;28;20035;-90
2022/08/21 07:38:43;;;;;;;6.32;2.00;;;21.50;99.90;;;;;;5071533;28;20043;-84
2022/08/21 07:41:22;;;;;;;7.53;2.05;;;21.70;99.90;;;;;;5071859;28;20048;-82
2022/08/21 07:43:47;;;;;;;9.20;1.83;;;21.80;99.90;;;;;;5071097;28;20575;-82
2022/08/21 07:46:13;;;;;;;8.88;2.10;;;21.90;99.90;;;;;;5054361;28;20048;-82
2022/08/21 07:48:39;;;;;;;10.02;2.13;;;22.00;99.90;;;;;;5056488;28;20051;-80
2022/08/21 07:51:09;;;;;;;8.38;2.10;;;22.10;99.90;;;;;;5069169;28;20040;-80
2022/08/21 07:53:36;;;;;;;8.57;2.58;;;22.20;99.90;;;;;;5087000;28;20059;-80
2022/08/21 07:56:04;;;;;;;7.28;2.20;;;22.30;99.90;;;;;;5055186;28;20039;-80
2022/08/21 07:58:30;;;;;;;6.45;1.83;;;22.40;99.90;;;;;;5092021;28;20040;-80
2022/08/21 08:00:56;;;;;;;7.35;2.13;;;22.50;99.90;;;;;;5082019;28;20734;-80
2022/08/21 08:03:22;;;;;;;6.50;2.00;;;22.60;99.90;;;;;;5079082;28;20071;-80
2022/08/21 08:05:47;;;;;;;8.35;2.00;;;22.70;99.90;;;;;;5053426;28;20032;-84
2022/08/21 08:08:13;;;;;;;4.78;1.80;;;22.70;99.90;;;;;;5089452;28;20477;-80
2022/08/21 08:10:39;;;;;;;5.68;2.00;;;22.80;99.90;;;;;;5086515;28;20051;-80
2022/08/21 08:13:05;;;;;;;6.07;2.22;;;23.00;99.90;;;;;;5058267;28;20051;-80
2022/08/21 08:15:31;;;;;;;7.85;2.20;;;23.00;99.90;;;;;;5075853;28;20485;-80
2022/08/21 08:17:57;;;;;;;9.52;2.28;;;23.20;99.90;;;;;;5079903;28;20048;-79
2022/08/21 08:20:26;;;;;;;6.22;1.95;;;23.30;99.90;;;;;;5079522;28;20066;-80
2022/08/21 08:22:52;;;;;;;8.10;2.33;;;23.50;99.90;;;;;;5064521;28;20079;-80
2022/08/21 08:25:19;;;;;;;10.20;2.25;;;23.60;99.90;;;;;;5095084;28;20362;-80
2022/08/21 08:27:45;;;;;;;7.68;2.67;;;23.60;99.90;;;;;;5080046;28;20127;-80
2022/08/21 08:30:13;;;;;;;8.35;2.00;;;23.60;99.90;;;;;;5080137;28;20616;-80
2022/08/21 08:32:39;;;;;;;7.18;2.03;;;23.70;99.90;;;;;;5070195;28;20090;-80
2022/08/21 08:35:06;;;;;;;8.40;1.83;;;23.80;99.90;;;;;;5078962;28;20048;-80
2022/08/21 08:37:33;;;;;;;6.97;2.03;;;24.00;99.90;;;;;;5094369;28;20059;-80
2022/08/21 08:39:59;;;;;;;7.45;2.10;;;24.00;99.90;;;;;;5092399;28;20143;-80
2022/08/21 08:42:29;;;;;;;5.53;1.90;;;24.00;99.90;;;;;;5074670;28;20459;-79
2022/08/21 08:45:04;;;;;;;8.90;2.33;;;24.00;99.90;;;;;;5091550;28;20571;-79
2022/08/21 08:47:32;;;;;;;6.85;1.90;;;24.20;99.90;;;;;;5073767;28;20080;-79
2022/08/21 08:50:04;;;;;;;7.15;2.03;;;24.30;99.90;;;;;;5074596;28;20048;-78
2022/08/21 08:52:36;;;;;;;6.97;1.90;;;24.50;99.90;;;;;;5090442;28;20052;-78
2022/08/21 08:55:20;;;;;;;8.35;1.77;;;24.60;99.90;;;;;;5089085;28;20040;-78
2022/08/21 08:57:49;;;;;;;7.15;1.75;;;24.70;99.90;;;;;;5088331;28;20086;-79
2022/08/21 09:00:20;;;;;;;8.38;2.28;;;24.80;99.90;;;;;;5087546;28;20051;-78
2022/08/21 09:02:46;;;;;;;6.28;1.60;;;25.10;99.90;;;;;;5086538;28;20055;-77
2022/08/21 09:05:23;;;;;;;6.22;1.80;;;25.00;99.90;;;;;;5088271;28;20053;-78
2022/08/21 09:08:26;;;;;;;6.82;1.95;;;24.90;99.90;;;;;;5058779;28;20046;-79
2022/08/21 09:11:04;;;;;;;4.35;1.50;;;24.70;99.90;;;;;;5086966;28;20044;-79
2022/08/21 09:13:57;;;;;;;3.83;1.38;;;24.50;99.90;;;;;;5070974;28;20132;-80
2022/08/21 09:16:55;;;;;;;3.90;1.15;;;24.50;99.90;;;;;;5075020;28;20048;-79
2022/08/21 09:19:34;;;;;;;5.43;1.63;;;24.60;99.90;;;;;;5086508;28;20441;-79
2022/08/21 09:22:33;;;;;;;4.45;1.95;;;24.80;99.90;;;;;;5088449;28;20044;-80
2022/08/21 09:25:12;;;;;;;4.85;1.60;;;25.10;99.90;;;;;;5074446;28;20052;-79
2022/08/21 09:27:37;;;;;;;3.25;1.30;;;24.80;99.90;;;;;;5091414;28;20040;-79
2022/08/21 09:30:06;;;;;;;5.68;1.60;;;24.80;99.90;;;;;;5090598;28;20054;-80
2022/08/21 09:32:34;;;;;;;5.82;1.73;;;24.90;99.90;;;;;;5092291;28;20521;-79
2022/08/21 09:35:08;;;;;;;3.83;1.45;;;25.00;99.90;;;;;;5061291;28;20637;-79
2022/08/21 09:38:10;;;;;;;3.63;1.42;;;25.30;99.90;;;;;;5089906;28;20055;-79
2022/08/21 09:40:45;;;;;;;3.58;1.30;;;25.70;99.90;;;;;;5084311;28;20071;-78
2022/08/21 09:43:11;;;;;;;4.63;1.23;;;26.00;99.90;;;;;;5073921;28;20032;-79
2022/08/21 09:45:38;;;;;;;6.15;1.80;;;26.10;99.90;;;;;;5093697;28;20043;-79
2022/08/21 09:48:20;;;;;;;4.40;1.40;;;26.10;99.90;;;;;;5071576;28;20047;-79
2022/08/21 09:50:47;;;;;;;3.30;1.33;;;26.30;99.90;;;;;;5073381;28;20063;-78
2022/08/21 09:53:20;;;;;;;4.13;1.30;;;26.20;99.90;;;;;;5071838;28;20063;-79
2022/08/21 09:58:44;;;;;;;5.28;1.50;;;26.10;99.90;;;;;;5090264;28;20040;-79
2022/08/21 10:01:19;;;;;;;4.45;1.60;;;26.00;99.90;;;;;;5071760;28;20097;-79
2022/08/21 10:03:46;;;;;;;6.00;1.85;;;25.90;99.90;;;;;;5096752;28;20080;-79
2022/08/21 10:06:23;;;;;;;5.53;1.88;;;25.90;99.90;;;;;;5079660;28;20055;-79
2022/08/21 10:08:48;;;;;;;4.25;1.60;;;25.70;99.90;;;;;;5096084;28;20079;-77
2022/08/21 10:11:16;;;;;;;5.82;1.52;;;25.60;99.90;;;;;;5046787;28;20509;-78
2022/08/21 10:13:48;;;;;;;3.03;1.40;;;25.60;99.90;;;;;;5098978;28;20085;-78
2022/08/21 10:16:51;;;;;;;5.35;1.58;;;25.70;99.90;;;;;;5065411;28;20097;-78
2022/08/21 10:19:29;;;;;;;5.78;1.63;;;25.90;99.90;;;;;;5079914;28;20135;-77
2022/08/21 10:22:07;;;;;;;5.20;1.73;;;26.10;99.90;;;;;;5093900;28;20054;-79
2022/08/21 10:24:57;;;;;;;3.95;1.50;;;26.50;99.90;;;;;;5097108;28;20146;-80
2022/08/21 10:27:23;;;;;;;2.78;1.10;;;26.70;99.90;;;;;;5094366;28;20063;-80
2022/08/21 10:29:51;;;;;;;4.18;1.30;;;26.70;99.50;;;;;;5096372;28;20043;-79
2022/08/21 10:32:33;;;;;;;6.43;1.27;;;26.50;99.00;;;;;;5096825;28;20065;-81
2022/08/21 10:35:07;;;;;;;4.72;1.50;;;26.70;98.50;;;;;;5079350;28;20052;-81
2022/08/21 10:37:39;;;;;;;4.43;1.20;;;26.80;98.20;;;;;;5078771;28;20139;-80
2022/08/21 10:40:23;;;;;;;4.32;1.50;;;26.80;98.60;;;;;;5081477;28;20059;-81
2022/08/21 10:42:51;;;;;;;5.40;1.40;;;26.60;97.80;;;;;;5077397;28;20052;-79
2022/08/21 10:45:52;;;;;;;5.95;1.90;;;26.40;98.00;;;;;;5064565;28;20052;-81
2022/08/21 10:48:29;;;;;;;5.38;1.63;;;26.40;98.10;;;;;;5097454;28;20078;-81
2022/08/21 10:51:27;;;;;;;4.63;1.80;;;26.30;98.80;;;;;;5095500;28;20060;-81
2022/08/21 10:54:05;;;;;;;5.30;1.67;;;26.60;98.60;;;;;;5078617;28;20051;-81
2022/08/21 10:56:34;;;;;;;4.68;1.40;;;26.70;98.20;;;;;;5079070;28;20049;-81
2022/08/21 10:59:08;;;;;;;5.57;1.45;;;26.70;98.00;;;;;;5097037;28;20046;-81
2022/08/21 11:01:43;;;;;;;5.72;1.67;;;27.00;98.00;;;;;;5096964;28;20062;-80
2022/08/21 11:04:16;;;;;;;4.72;1.42;;;27.20;97.50;;;;;;5077843;28;20048;-80
2022/08/21 11:06:52;;;;;;;5.45;2.13;;;27.20;97.70;;;;;;5095068;28;20468;-81
2022/08/21 11:09:21;;;;;;;3.72;1.50;;;27.20;97.80;;;;;;5079390;28;20127;-81
2022/08/21 11:12:03;;;;;;;5.13;1.45;;;27.10;97.30;;;;;;5095183;28;20054;-80
2022/08/21 11:15:00;;;;;;;3.88;1.33;;;27.20;97.50;;;;;;5095638;28;20048;-81
2022/08/21 11:17:49;;;;;;;5.07;1.67;;;27.30;97.00;;;;;;5079642;28;20052;-80
2022/08/21 11:20:48;;;;;;;5.35;1.73;;;27.50;97.20;;;;;;5097224;28;20051;-81
2022/08/21 11:23:24;;;;;;;3.67;1.27;;;27.70;97.00;;;;;;5074865;28;20577;-80
2022/08/21 11:26:02;;;;;;;5.90;1.63;;;27.50;96.50;;;;;;5094321;28;20055;-81
2022/08/21 11:28:37;;;;;;;3.58;1.38;;;27.60;96.60;;;;;;5080345;28;20051;-81
2022/08/21 11:31:17;;;;;;;4.85;1.73;;;27.60;96.30;;;;;;5080348;28;20056;-80
2022/08/21 11:34:01;;;;;;;4.93;1.40;;;27.70;96.30;;;;;;5063523;28;20481;-81
2022/08/21 11:36:39;;;;;;;5.55;1.60;;;27.80;95.40;;;;;;5096395;28;20074;-80
2022/08/21 11:39:21;;;;;;;3.67;1.30;;;27.60;95.40;;;;;;5079993;28;20134;-81
2022/08/21 11:42:14;;;;;;;5.10;1.48;;;27.60;94.80;;;;;;5097064;28;20044;-81
2022/08/21 11:44:59;;;;;;;4.65;1.30;;;27.60;95.40;;;;;;5066222;28;20143;-80
2022/08/21 11:47:50;;;;;;;5.57;1.60;;;27.40;95.30;;;;;;5096156;28;20050;-80
2022/08/21 11:50:22;;;;;;;4.28;1.40;;;27.10;95.50;;;;;;5097432;28;20516;-81
2022/08/21 11:52:59;;;;;;;3.95;1.38;;;27.00;95.70;;;;;;5097860;28;20109;-81
2022/08/21 11:55:27;;;;;;;3.53;1.35;;;27.20;95.80;;;;;;5097005;28;20063;-81
2022/08/21 11:58:01;;;;;;;4.80;1.17;;;27.20;95.70;;;;;;5080397;28;20052;-81
2022/08/21 12:00:41;;;;;;;6.05;1.40;;;27.20;95.30;;;;;;5095820;28;20131;-80
2022/08/21 12:03:16;;;;;;;4.70;1.40;;;27.20;94.60;;;;;;5081003;28;20044;-81
2022/08/21 12:05:52;;;;;;;3.20;1.50;;;26.90;94.80;;;;;;5096471;28;20126;-81
2022/08/21 12:08:33;;;;;;;4.07;1.30;;;27.20;95.00;;;;;;5096372;28;20487;-80
2022/08/21 12:11:19;;;;;;;7.38;1.50;;;27.30;94.40;;;;;;5097790;28;20087;-81
2022/08/21 12:13:54;;;;;;;;;;;27.40;94.70;;;;;;5098185;28;20074;-80
2022/08/21 12:16:41;;;;;;;3.97;1.40;;;27.30;94.10;;;;;;5084190;28;19931;-80
2022/08/21 12:19:13;;;;;;;7.22;1.90;;;27.40;94.00;;;;;;5101767;28;20139;-80
2022/08/21 12:21:58;;;;;;;3.60;1.50;;;27.50;94.50;;;;;;5099683;28;20401;-80
2022/08/21 12:24:27;;;;;;;3.92;1.30;;;27.60;93.80;;;;;;5074455;28;20060;-80
2022/08/21 12:27:21;;;;;;;4.68;1.50;;;27.50;93.90;;;;;;5083690;28;20056;-80
2022/08/21 12:29:56;;;;;;;4.53;1.27;;;27.60;93.70;;;;;;5070826;28;20064;-81
2022/08/21 12:32:42;;;;;;;4.82;1.70;;;27.80;93.00;;;;;;5082747;28;20585;-80
2022/08/21 12:35:21;;;;;;;3.05;1.30;;;28.10;93.40;;;;;;5098752;28;20183;-80
2022/08/21 12:37:56;;;;;;;5.68;1.50;;;28.20;93.30;;;;;;5082277;28;20451;-81
2022/08/21 12:40:31;;;;;;;3.17;1.00;;;28.10;93.30;;;;;;5080618;28;20118;-80
2022/08/21 12:43:00;;;;;;;3.70;1.30;;;28.10;93.00;;;;;;5100103;28;20053;-81
2022/08/21 12:45:41;;;;;;;6.10;1.80;;;28.10;93.10;;;;;;5064466;28;20055;-81
2022/08/21 12:48:14;;;;;;;5.82;1.42;;;28.00;93.00;;;;;;5066918;28;20085;-80
2022/08/21 12:51:13;;;;;;;4.80;1.77;;;28.20;93.30;;;;;;5065107;28;20517;-81
2022/08/21 12:53:49;;;;;;;4.20;1.17;;;28.10;92.40;;;;;;5063310;28;20388;-81
2022/08/21 12:56:20;;;;;;;4.53;1.30;;;28.20;92.20;;;;;;5081734;28;20183;-87
2022/08/21 12:59:05;;;;;;;3.10;1.38;;;28.50;92.30;;;;;;5064815;28;20047;-86
2022/08/21 13:01:36;;;;;;;4.38;1.70;;;28.50;92.00;;;;;;5097708;28;20396;-86
2022/08/21 13:04:15;;;;;;;4.72;1.42;;;28.70;91.90;;;;;;5081961;28;20075;-86
2022/08/21 13:06:44;;;;;;;4.07;1.20;;;28.70;91.50;;;;;;5065618;28;20047;-86